Time;durP1;ratioP1;P1;durP2;ratioP2;P2;SDS_P1;SDS_P2;PMS_P1;PMS_P2;Temp;Humidity;BMP_temperature;BMP_pressure;BME280_temperature;BME280_humidity;BME280_pressure;Samples;Min_cycle;Max_cycle;Signal;HPM_P1;HPM_P2
2022/07/23 00:02:21;;;;;;;7.68;6.35;;;;;;;22.27;70.45;99635.31;4827603;29;20481;-81
2022/07/23 00:04:46;;;;;;;8.98;6.38;;;;;;;22.23;70.35;99633.91;4844520;29;20053;-81
2022/07/23 00:07:12;;;;;;;7.15;6.25;;;;;;;22.25;70.65;99633.75;4844600;29;20030;-81
2022/07/23 00:09:37;;;;;;;7.50;6.10;;;;;;;22.25;70.59;99641.72;4844730;29;20511;-81
2022/07/23 00:12:03;;;;;;;7.40;5.75;;;;;;;22.20;70.52;99634.19;4843994;29;20167;-81
2022/07/23 00:14:28;;;;;;;7.20;6.20;;;;;;;22.17;70.65;99631.88;4844084;29;20033;-80
2022/07/23 00:16:53;;;;;;;7.57;5.90;;;;;;;22.16;70.71;99641.66;4844295;29;20041;-80
2022/07/23 00:19:19;;;;;;;7.28;5.93;;;;;;;22.21;70.91;99643.03;4843998;29;20551;-80
2022/07/23 00:21:44;;;;;;;9.13;6.38;;;;;;;22.11;70.90;99641.19;4844080;29;20486;-80
2022/07/23 00:24:09;;;;;;;6.60;6.00;;;;;;;22.10;71.11;99630.75;4843908;29;20291;-80
2022/07/23 00:26:35;;;;;;;9.20;6.93;;;;;;;22.11;71.34;99649.16;4842551;29;20531;-80
2022/07/23 00:29:00;;;;;;;6.97;6.25;;;;;;;22.06;71.35;99645.28;4844011;29;20042;-81
2022/07/23 00:31:25;;;;;;;7.53;6.20;;;;;;;22.08;71.50;99659.22;4843626;29;20037;-80
2022/07/23 00:33:52;;;;;;;8.27;7.00;;;;;;;22.06;71.77;99674.44;4843768;29;20538;-80
2022/07/23 00:36:17;;;;;;;9.20;6.32;;;;;;;22.03;71.91;99670.25;4827085;29;20034;-80
2022/07/23 00:38:43;;;;;;;8.55;6.13;;;;;;;21.93;72.11;99657.03;4843835;29;20030;-80
2022/07/23 00:41:08;;;;;;;6.97;6.30;;;;;;;21.93;72.74;99670.28;4843492;29;20427;-81
2022/07/23 00:43:33;;;;;;;9.98;6.63;;;;;;;21.81;73.33;99657.34;4842695;29;20435;-80
2022/07/23 00:45:59;;;;;;;7.95;6.60;;;;;;;21.72;73.95;99660.84;4842313;29;20057;-80
2022/07/23 00:48:25;;;;;;;7.30;6.55;;;;;;;21.72;74.24;99671.47;4826983;29;20037;-80
2022/07/23 00:50:50;;;;;;;7.00;6.30;;;;;;;21.63;74.80;99671.34;4843571;29;20398;-80
2022/07/23 00:53:16;;;;;;;6.35;5.75;;;;;;;21.52;74.88;99657.38;4843434;29;20105;-80
2022/07/23 00:55:41;;;;;;;7.05;6.43;;;;;;;21.54;75.62;99661.59;4842282;29;20046;-80
2022/07/23 00:58:08;;;;;;;7.93;7.07;;;;;;;21.38;76.23;99656.00;4843424;29;20058;-80
2022/07/23 01:00:34;;;;;;;9.40;6.20;;;;;;;21.26;76.52;99646.50;4843476;29;20037;-80
2022/07/23 01:02:59;;;;;;;8.77;7.13;;;;;;;21.32;77.27;99668.03;4843183;29;20050;-80
2022/07/23 01:05:25;;;;;;;7.38;6.57;;;;;;;21.20;77.71;99660.31;4822161;29;20046;-80
2022/07/23 01:07:51;;;;;;;7.95;6.95;;;;;;;21.14;78.35;99665.16;4822821;29;20159;-80
2022/07/23 01:10:33;;;;;;;7.40;6.70;;;;;;;21.14;78.93;99674.94;4808497;29;20054;-80
2022/07/23 01:12:59;;;;;;;8.50;6.88;;;;;;;21.05;79.41;99667.81;4840926;29;20053;-80
2022/07/23 01:15:24;;;;;;;7.22;6.43;;;;;;;20.95;79.52;99669.63;4840685;29;20175;-80
2022/07/23 01:17:50;;;;;;;9.55;6.32;;;;;;;20.85;80.24;99659.00;4825449;29;20125;-80
2022/07/23 01:20:15;;;;;;;7.13;6.50;;;;;;;20.93;80.61;99683.00;4840326;29;20394;-80
2022/07/23 01:22:41;;;;;;;7.53;6.72;;;;;;;20.88;80.90;99674.63;4840965;29;20471;-80
2022/07/23 01:25:07;;;;;;;7.07;6.38;;;;;;;20.76;81.10;99665.13;4840905;29;20050;-80
2022/07/23 01:27:32;;;;;;;7.18;6.47;;;;;;;20.69;81.65;99656.91;4825006;29;20044;-80
2022/07/23 01:30:00;;;;;;;7.10;6.50;;;;;;;20.67;82.01;99662.31;4840511;29;20092;-81
2022/07/23 01:32:25;;;;;;;9.10;6.90;;;;;;;20.62;82.97;99658.41;4824950;29;20134;-83
2022/07/23 01:34:51;;;;;;;9.63;7.07;;;;;;;20.53;83.34;99657.41;4840768;29;20038;-83
2022/07/23 01:37:16;;;;;;;10.27;7.78;;;;;;;20.43;84.26;99648.56;4842085;29;20125;-83
2022/07/23 01:39:41;;;;;;;7.85;7.05;;;;;;;20.44;84.89;99659.03;4841560;29;20117;-83
2022/07/23 01:42:07;;;;;;;9.65;7.55;;;;;;;20.41;85.46;99659.28;4842436;29;20044;-83
2022/07/23 01:44:32;;;;;;;8.85;7.93;;;;;;;20.29;85.87;99638.38;4842401;29;20364;-83
2022/07/23 01:46:57;;;;;;;8.65;7.93;;;;;;;20.30;86.26;99658.53;4842550;29;20034;-83
2022/07/23 01:49:23;;;;;;;8.57;7.78;;;;;;;20.23;86.89;99660.06;4825831;29;20033;-82
2022/07/23 01:52:00;;;;;;;9.75;8.10;;;;;;;20.13;87.23;99652.91;4842439;29;20063;-83
2022/07/23 01:54:27;;;;;;;9.15;8.23;;;;;;;20.10;87.58;99649.69;4825613;29;20029;-82
2022/07/23 01:56:53;;;;;;;9.13;8.23;;;;;;;20.03;87.87;99643.28;4842247;29;20034;-83
2022/07/23 01:59:18;;;;;;;10.00;8.65;;;;;;;20.02;88.51;99638.97;4842274;29;20113;-83
2022/07/23 02:01:43;;;;;;;10.02;8.40;;;;;;;20.02;88.72;99649.53;4842252;29;20141;-82
2022/07/23 02:04:09;;;;;;;10.35;8.15;;;;;;;19.91;88.70;99632.78;4842424;29;20142;-82
2022/07/23 02:06:34;;;;;;;11.25;7.90;;;;;;;19.85;89.72;99630.66;4841909;29;20086;-83
2022/07/23 02:08:59;;;;;;;9.02;8.13;;;;;;;19.89;89.70;99633.88;4842059;29;20064;-82
2022/07/23 02:11:25;;;;;;;9.55;8.55;;;;;;;19.83;89.79;99639.69;4841857;29;20030;-82
2022/07/23 02:13:50;;;;;;;8.95;8.02;;;;;;;19.77;90.43;99627.84;4842124;29;20026;-83
2022/07/23 02:16:15;;;;;;;9.13;8.18;;;;;;;19.66;90.08;99615.53;4841947;29;20030;-82
2022/07/23 02:18:40;;;;;;;8.98;8.07;;;;;;;19.64;91.04;99617.47;4842010;29;20086;-83
2022/07/23 02:21:06;;;;;;;9.00;8.10;;;;;;;19.72;91.05;99629.19;4842030;29;20040;-83
2022/07/23 02:23:31;;;;;;;9.13;8.20;;;;;;;19.68;91.10;99629.47;4825286;29;20064;-82
2022/07/23 02:25:56;;;;;;;8.85;7.72;;;;;;;19.59;91.53;99618.78;4840517;29;20064;-83
2022/07/23 02:28:22;;;;;;;11.25;8.70;;;;;;;19.59;91.58;99621.41;4841735;29;20031;-83
2022/07/23 02:30:47;;;;;;;10.57;8.85;;;;;;;19.59;91.62;99622.28;4840720;29;20041;-82
2022/07/23 02:33:12;;;;;;;10.82;8.25;;;;;;;19.59;92.06;99634.63;4841681;29;20059;-83
2022/07/23 02:35:38;;;;;;;10.25;8.60;;;;;;;19.43;93.04;99620.09;4840628;29;20030;-83
2022/07/23 02:38:03;;;;;;;10.18;9.07;;;;;;;19.38;93.11;99618.78;4841681;29;20117;-82
2022/07/23 02:40:28;;;;;;;10.43;8.77;;;;;;;19.39;93.16;99618.66;4841300;29;20378;-83
2022/07/23 02:42:54;;;;;;;10.20;9.23;;;;;;;19.48;93.31;99640.00;4841730;29;20090;-83
2022/07/23 02:45:19;;;;;;;8.95;8.15;;;;;;;19.40;93.38;99622.97;4841761;29;20026;-83
2022/07/23 02:47:44;;;;;;;9.88;8.88;;;;;;;19.41;93.84;99613.25;4841592;29;20116;-82
2022/07/23 02:50:11;;;;;;;12.15;9.45;;;;;;;19.42;93.54;99602.56;4841579;29;20042;-82
2022/07/23 02:52:37;;;;;;;12.02;8.90;;;;;;;19.44;93.97;99603.25;4841289;29;20038;-83
2022/07/23 02:55:03;;;;;;;11.00;9.45;;;;;;;19.38;94.06;99592.38;4841333;29;20090;-83
2022/07/23 02:57:28;;;;;;;11.13;8.68;;;;;;;19.37;94.39;99591.53;4840125;29;20026;-82
2022/07/23 02:59:53;;;;;;;9.25;8.35;;;;;;;19.44;93.85;99600.63;4840109;29;20058;-83
2022/07/23 03:02:19;;;;;;;9.27;8.38;;;;;;;19.41;93.17;99585.03;4841262;29;20503;-82
2022/07/23 03:04:44;;;;;;;9.45;8.20;;;;;;;19.57;92.27;99596.94;4841161;29;20030;-83
2022/07/23 03:07:09;;;;;;;11.52;8.43;;;;;;;19.64;92.05;99595.50;4824747;29;20049;-82
2022/07/23 03:09:35;;;;;;;9.77;8.52;;;;;;;19.67;91.78;99596.06;4824527;29;20036;-82
2022/07/23 03:12:00;;;;;;;9.68;8.65;;;;;;;19.78;91.42;99626.88;4841446;29;20041;-82
2022/07/23 03:14:27;;;;;;;10.40;8.15;;;;;;;19.78;92.33;99618.94;4841110;29;20034;-82
2022/07/23 03:16:53;;;;;;;11.85;8.48;;;;;;;19.75;92.41;99611.25;4841093;29;20479;-83
2022/07/23 03:19:18;;;;;;;10.90;8.40;;;;;;;19.72;92.52;99614.19;4824679;29;20034;-82
2022/07/23 03:21:44;;;;;;;9.52;8.65;;;;;;;19.68;92.54;99616.25;4841058;29;20026;-82
2022/07/23 03:24:09;;;;;;;9.32;8.25;;;;;;;19.70;93.04;99616.09;4840952;29;20026;-82
2022/07/23 03:26:35;;;;;;;10.32;8.45;;;;;;;19.68;93.10;99620.69;4841118;29;20090;-83
2022/07/23 03:29:03;;;;;;;8.95;8.15;;;;;;;19.73;93.25;99623.78;4839861;29;20037;-82
2022/07/23 03:31:28;;;;;;;12.00;8.88;;;;;;;19.68;93.05;99623.34;4840883;29;20113;-82
2022/07/23 03:33:54;;;;;;;13.00;8.85;;;;;;;19.73;93.43;99636.16;4841126;29;20072;-82
2022/07/23 03:36:19;;;;;;;9.05;8.15;;;;;;;19.74;93.22;99627.25;4840730;29;20034;-82
2022/07/23 03:38:44;;;;;;;9.02;8.13;;;;;;;19.71;93.51;99609.00;4840909;29;20037;-82
2022/07/23 03:41:10;;;;;;;10.90;8.35;;;;;;;19.79;93.31;99625.06;4839897;29;20125;-82
2022/07/23 03:43:35;;;;;;;10.30;9.15;;;;;;;19.88;92.83;99629.53;4824473;29;20471;-82
2022/07/23 03:46:00;;;;;;;13.52;9.32;;;;;;;19.89;92.51;99613.56;4841124;29;20467;-83
2022/07/23 03:48:26;;;;;;;9.65;8.75;;;;;;;20.05;92.20;99618.34;4840844;29;20395;-83
2022/07/23 03:50:51;;;;;;;10.23;9.10;;;;;;;20.07;91.66;99623.53;4840945;29;20113;-82
2022/07/23 03:53:16;;;;;;;9.88;8.98;;;;;;;19.95;91.77;99606.91;4840677;29;20050;-82
2022/07/23 03:55:42;;;;;;;12.95;9.00;;;;;;;20.01;91.73;99627.53;4840809;29;20026;-82
2022/07/23 03:58:07;;;;;;;9.90;8.70;;;;;;;19.97;92.40;99620.00;4841241;29;20026;-82
2022/07/23 04:00:32;;;;;;;11.82;9.35;;;;;;;20.03;93.47;99616.84;4840841;29;20037;-82
2022/07/23 04:02:58;;;;;;;9.68;8.77;;;;;;;20.06;93.03;99604.19;4840770;29;20398;-82
2022/07/23 04:05:23;;;;;;;10.05;8.93;;;;;;;20.25;92.93;99623.72;4840548;29;20576;-82
2022/07/23 04:07:49;;;;;;;10.35;8.80;;;;;;;20.23;92.19;99610.66;4840637;29;20113;-82
2022/07/23 04:10:14;;;;;;;11.30;8.75;;;;;;;20.44;91.17;99616.69;4839648;29;20085;-82
2022/07/23 04:12:39;;;;;;;11.15;8.75;;;;;;;20.56;91.79;99622.75;4839325;29;20049;-82
2022/07/23 04:15:07;;;;;;;9.27;8.38;;;;;;;20.76;91.06;99617.47;4840779;29;20080;-82
2022/07/23 04:17:33;;;;;;;10.27;8.50;;;;;;;21.01;89.54;99611.66;4841276;29;20034;-82
2022/07/23 04:19:58;;;;;;;11.13;8.27;;;;;;;21.41;87.56;99627.44;4827405;29;20037;-82
2022/07/23 04:22:23;;;;;;;8.77;7.88;;;;;;;21.75;85.68;99607.56;4843807;29;20079;-83
2022/07/23 04:24:50;;;;;;;9.40;7.63;;;;;;;22.16;83.76;99607.16;4844156;29;20025;-83
2022/07/23 04:27:15;;;;;;;8.65;7.43;;;;;;;22.46;81.78;99610.50;4843962;29;20034;-83
2022/07/23 04:29:41;;;;;;;8.18;7.38;;;;;;;22.57;80.03;99607.63;4843816;29;20038;-83
2022/07/23 04:32:06;;;;;;;7.78;7.07;;;;;;;22.70;79.85;99601.94;4844235;29;20034;-82
2022/07/23 04:34:32;;;;;;;10.90;7.13;;;;;;;22.79;79.52;99585.09;4843673;29;20054;-83
2022/07/23 04:36:57;;;;;;;9.23;7.15;;;;;;;23.04;77.86;99583.53;4843715;29;20045;-83
2022/07/23 04:39:23;;;;;;;7.45;6.75;;;;;;;23.76;75.57;99588.72;4843451;29;20163;-83
2022/07/23 04:41:48;;;;;;;7.78;6.97;;;;;;;24.57;71.70;99572.31;4843868;29;20038;-83
2022/07/23 04:44:13;;;;;;;8.15;7.35;;;;;;;25.11;68.62;99576.22;4827199;29;20033;-83
2022/07/23 04:46:39;;;;;;;7.90;6.50;;;;;;;25.48;67.18;99574.00;4843492;29;20040;-83
2022/07/23 04:49:04;;;;;;;7.70;7.03;;;;;;;25.62;66.31;99571.50;4843646;29;20033;-83
2022/07/23 04:51:30;;;;;;;7.22;6.53;;;;;;;25.60;66.49;99562.00;4843284;29;20033;-83
2022/07/23 04:53:55;;;;;;;6.75;5.93;;;;;;;25.49;66.81;99567.69;4843365;29;20375;-83
2022/07/23 04:56:21;;;;;;;7.55;6.15;;;;;;;25.43;66.79;99553.19;4843456;29;20037;-84
2022/07/23 04:58:46;;;;;;;7.97;6.57;;;;;;;25.65;65.75;99559.63;4843574;29;20527;-83
2022/07/23 05:01:12;;;;;;;6.53;5.57;;;;;;;26.27;63.00;99551.75;4843426;29;20431;-83
2022/07/23 05:03:37;;;;;;;7.75;6.00;;;;;;;26.68;60.89;99548.88;4843194;29;20052;-83
2022/07/23 05:06:03;;;;;;;6.30;5.70;;;;;;;26.80;59.98;99541.25;4843537;29;20041;-82
2022/07/23 05:08:28;;;;;;;6.65;5.72;;;;;;;26.57;60.64;99550.13;4843093;29;20065;-83
2022/07/23 05:10:54;;;;;;;6.60;5.80;;;;;;;26.07;61.45;99542.53;4843650;29;20033;-83
2022/07/23 05:13:19;;;;;;;6.38;5.78;;;;;;;25.77;63.18;99552.16;4843278;29;20433;-83
2022/07/23 05:15:45;;;;;;;7.10;6.40;;;;;;;25.54;64.06;99549.34;4822067;29;20523;-83
2022/07/23 05:18:11;;;;;;;8.00;6.00;;;;;;;25.29;64.95;99540.56;4807180;29;20078;-83
2022/07/23 05:20:37;;;;;;;7.10;6.40;;;;;;;25.01;66.06;99534.72;4822060;29;20053;-83
2022/07/23 05:23:02;;;;;;;7.10;6.38;;;;;;;24.81;66.69;99520.88;4822598;29;20043;-83
2022/07/23 05:25:28;;;;;;;8.57;6.38;;;;;;;24.77;67.15;99530.22;4822154;29;20046;-83
2022/07/23 05:27:53;;;;;;;6.90;6.30;;;;;;;24.98;67.19;99527.03;4821997;29;20522;-81
2022/07/23 05:30:18;;;;;;;7.63;6.07;;;;;;;25.48;66.42;99532.19;4822134;29;20050;-81
2022/07/23 05:32:44;;;;;;;7.03;6.43;;;;;;;25.81;64.04;99524.13;4822119;29;20185;-81
2022/07/23 05:35:09;;;;;;;7.85;6.32;;;;;;;26.00;63.04;99513.03;4822252;29;20046;-81
2022/07/23 05:37:35;;;;;;;7.65;6.78;;;;;;;26.03;62.77;99515.34;4821887;29;20543;-81
2022/07/23 05:40:07;;;;;;;9.35;7.93;;;;;;;25.75;62.38;99498.13;4821548;29;20066;-80
2022/07/23 05:42:33;;;;;;;8.10;6.85;;;;;;;25.64;63.43;99513.47;4821828;29;20483;-81
2022/07/23 05:44:58;;;;;;;11.27;7.45;;;;;;;25.37;64.17;99501.38;4822128;29;20041;-81
2022/07/23 05:47:24;;;;;;;8.75;7.30;;;;;;;25.38;64.77;99504.88;4841826;29;20073;-81
2022/07/23 05:49:49;;;;;;;12.45;8.07;;;;;;;25.69;64.16;99501.44;4842577;29;20057;-81
2022/07/23 05:52:15;;;;;;;11.43;8.25;;;;;;;25.71;62.85;99502.13;4842683;29;20030;-81
2022/07/23 05:54:40;;;;;;;8.10;7.18;;;;;;;25.52;63.87;99503.34;4841128;29;20084;-81
2022/07/23 05:57:05;;;;;;;8.43;7.60;;;;;;;25.32;64.78;99501.03;4842580;29;20519;-81
2022/07/23 05:59:31;;;;;;;8.80;7.40;;;;;;;25.30;65.54;99518.22;4842189;29;20022;-81
2022/07/23 06:01:56;;;;;;;8.05;7.18;;;;;;;25.27;65.13;99508.72;4840734;29;20060;-81
2022/07/23 06:04:21;;;;;;;10.90;7.85;;;;;;;25.16;65.10;99519.75;4842594;29;20430;-82
2022/07/23 06:06:47;;;;;;;8.40;7.22;;;;;;;24.90;65.99;99506.56;4825555;29;20042;-81
2022/07/23 06:09:13;;;;;;;7.78;6.97;;;;;;;24.91;66.68;99515.41;4842374;29;20026;-81
2022/07/23 06:11:39;;;;;;;9.73;8.82;;;;;;;24.82;66.78;99515.41;4841919;29;20121;-82
2022/07/23 06:14:05;;;;;;;10.52;8.63;;;;;;;24.84;65.86;99513.41;4842470;29;20054;-82
2022/07/23 06:16:30;;;;;;;9.32;7.30;;;;;;;25.11;66.22;99519.41;4842228;29;20090;-83
2022/07/23 06:18:56;;;;;;;8.77;7.82;;;;;;;25.25;65.36;99521.41;4842203;29;20422;-82
2022/07/23 06:21:21;;;;;;;11.77;7.88;;;;;;;25.29;65.23;99522.72;4840679;29;20052;-83
2022/07/23 06:23:46;;;;;;;8.18;7.38;;;;;;;25.42;64.39;99514.22;4842221;29;20040;-82
2022/07/23 06:26:12;;;;;;;9.40;8.13;;;;;;;25.80;63.08;99515.28;4842392;29;20037;-82
2022/07/23 06:28:37;;;;;;;8.75;7.95;;;;;;;25.95;62.61;99509.22;4842101;29;20056;-82
2022/07/23 06:31:02;;;;;;;11.55;8.18;;;;;;;26.27;60.96;99481.53;4841933;29;20065;-82
2022/07/23 06:33:28;;;;;;;9.73;8.40;;;;;;;26.35;60.86;99500.16;4840376;29;20030;-82
2022/07/23 06:35:53;;;;;;;9.15;8.15;;;;;;;26.37;60.48;99490.94;4841616;29;20030;-82
2022/07/23 06:38:18;;;;;;;10.88;8.07;;;;;;;26.89;59.23;99496.63;4841958;29;20030;-82
2022/07/23 06:40:44;;;;;;;8.30;7.45;;;;;;;27.50;57.85;99503.56;4840859;29;20040;-82
2022/07/23 06:43:10;;;;;;;14.85;8.02;;;;;;;27.76;56.20;99497.75;4841544;29;20424;-82
2022/07/23 06:45:36;;;;;;;9.30;7.40;;;;;;;27.86;56.34;99502.84;4840199;29;20030;-82
2022/07/23 06:48:02;;;;;;;10.35;7.65;;;;;;;28.85;54.28;99498.56;4840381;29;20034;-82
2022/07/23 06:50:28;;;;;;;9.10;7.63;;;;;;;29.43;52.02;99493.03;4841501;29;20037;-82
2022/07/23 06:52:53;;;;;;;10.27;8.27;;;;;;;30.08;49.30;99480.94;4825329;29;20482;-82
2022/07/23 06:55:18;;;;;;;7.22;6.57;;;;;;;30.93;48.14;99477.81;4841648;29;20041;-82
2022/07/23 06:57:44;;;;;;;8.48;7.65;;;;;;;33.10;42.65;99492.44;4841286;29;20032;-83
2022/07/23 07:00:10;;;;;;;8.63;7.60;;;;;;;33.64;40.94;99483.59;4840224;29;20061;-83
2022/07/23 07:02:35;;;;;;;7.72;6.85;;;;;;;32.26;42.91;99479.13;4841274;29;20514;-83
2022/07/23 07:05:01;;;;;;;7.93;6.80;;;;;;;30.98;45.48;99465.41;4840074;29;20129;-82
2022/07/23 07:07:26;;;;;;;7.70;6.50;;;;;;;30.37;47.99;99470.09;4841553;29;20505;-82
2022/07/23 07:09:51;;;;;;;8.15;6.55;;;;;;;30.43;48.08;99461.25;4841318;29;20082;-82
2022/07/23 07:12:17;;;;;;;9.25;8.10;;;;;;;29.91;49.06;99468.09;4841359;29;20036;-82
2022/07/23 07:14:42;;;;;;;9.27;8.35;;;;;;;29.67;49.66;99475.66;4841131;29;20066;-82
2022/07/23 07:17:07;;;;;;;8.38;7.63;;;;;;;29.60;49.53;99485.50;4841323;29;20548;-82
2022/07/23 07:19:33;;;;;;;9.27;7.13;;;;;;;30.83;47.90;99472.03;4840981;29;20026;-82
2022/07/23 07:21:58;;;;;;;11.52;7.97;;;;;;;31.22;45.93;99469.28;4840022;29;20026;-82
2022/07/23 07:24:24;;;;;;;9.25;7.97;;;;;;;32.52;43.64;99475.44;4841364;29;20026;-82
2022/07/23 07:26:49;;;;;;;9.80;8.32;;;;;;;32.87;42.03;99471.44;4841052;29;20125;-82
2022/07/23 07:29:14;;;;;;;9.63;7.70;;;;;;;32.79;42.82;99465.28;4824912;29;20029;-82
2022/07/23 07:31:40;;;;;;;9.35;8.20;;;;;;;33.19;41.02;99475.75;4855024;29;20037;-82
2022/07/23 07:34:05;;;;;;;9.18;7.38;;;;;;;33.55;40.67;99466.06;4841259;29;20067;-82
2022/07/23 07:36:31;;;;;;;11.13;7.22;;;;;;;33.33;40.52;99467.50;4841194;29;20041;-82
2022/07/23 07:38:56;;;;;;;8.52;7.72;;;;;;;33.71;40.14;99464.59;4841222;29;20030;-82
2022/07/23 07:41:23;;;;;;;7.78;6.97;;;;;;;33.35;41.34;99460.84;4841144;29;20041;-82
2022/07/23 07:43:50;;;;;;;7.75;7.00;;;;;;;34.67;38.65;99454.75;4831485;29;20034;-82
2022/07/23 07:46:15;;;;;;;13.65;8.35;;;;;;;34.96;37.26;99466.56;4838115;29;20398;-82
2022/07/23 07:48:41;;;;;;;8.23;6.97;;;;;;;34.56;38.33;99461.00;4840677;29;20034;-82
2022/07/23 07:51:06;;;;;;;7.28;6.40;;;;;;;34.07;38.53;99454.81;4841006;29;20041;-82
2022/07/23 07:53:32;;;;;;;9.05;8.23;;;;;;;34.15;38.36;99474.25;4844531;29;20026;-82
2022/07/23 07:55:57;;;;;;;8.48;7.68;;;;;;;35.01;37.03;99458.59;4858808;29;20086;-82
2022/07/23 07:58:23;;;;;;;16.10;8.70;;;;;;;36.33;34.14;99457.81;4844609;29;20029;-83
2022/07/23 08:00:48;;;;;;;8.45;6.97;;;;;;;36.36;34.48;99449.16;4842929;29;20068;-82
2022/07/23 08:03:14;;;;;;;8.52;7.80;;;;;;;36.25;34.27;99441.94;4858657;29;20107;-82
2022/07/23 08:05:39;;;;;;;8.15;7.45;;;;;;;37.40;33.22;99450.56;4844132;29;20030;-82
2022/07/23 08:08:05;;;;;;;7.28;6.60;;;;;;;38.02;32.27;99433.91;4844344;29;20037;-83
2022/07/23 08:10:31;;;;;;;11.65;7.88;;;;;;;37.75;32.31;99439.28;4844454;29;20618;-82
2022/07/23 08:12:58;;;;;;;13.38;8.55;;;;;;;36.94;33.52;99448.00;4844082;29;20524;-82
2022/07/23 08:15:25;;;;;;;7.68;6.97;;;;;;;36.62;34.27;99436.06;4844309;29;20061;-82
2022/07/23 08:17:51;;;;;;;10.38;8.20;;;;;;;36.56;33.54;99456.88;4824583;29;20105;-83
2022/07/23 08:20:19;;;;;;;12.38;9.15;;;;;;;35.97;33.53;99450.91;4843037;29;20034;-82
2022/07/23 08:22:49;;;;;;;9.25;8.35;;;;;;;35.25;35.19;99446.69;4844160;29;20038;-82
2022/07/23 08:25:16;;;;;;;9.18;8.23;;;;;;;33.70;37.31;99457.56;4844176;29;20104;-82
2022/07/23 08:27:42;;;;;;;9.95;8.93;;;;;;;32.28;40.48;99457.34;4843813;29;20482;-82
2022/07/23 08:30:08;;;;;;;9.52;7.72;;;;;;;31.43;43.19;99465.56;4844258;29;20033;-82
2022/07/23 08:32:47;;;;;;;10.85;9.43;;;;;;;30.76;44.92;99467.50;4843914;29;20041;-82
2022/07/23 08:35:12;;;;;;;8.77;7.97;;;;;;;30.39;45.51;99455.44;4827573;29;20133;-82
2022/07/23 08:37:38;;;;;;;10.13;8.05;;;;;;;30.04;46.99;99465.44;4843800;29;20535;-82
2022/07/23 08:40:03;;;;;;;12.38;8.55;;;;;;;29.87;47.49;99462.28;4843722;29;20037;-82
2022/07/23 08:42:29;;;;;;;9.93;8.35;;;;;;;29.73;48.08;99469.47;4842511;29;20045;-82
2022/07/23 08:44:55;;;;;;;9.23;7.97;;;;;;;29.34;48.66;99459.34;4843489;29;20098;-82
2022/07/23 08:47:21;;;;;;;9.88;8.65;;;;;;;29.14;49.30;99450.34;4843833;29;20052;-82
2022/07/23 08:49:46;;;;;;;10.35;9.13;;;;;;;28.96;50.30;99465.06;4843676;29;20451;-82
2022/07/23 08:52:12;;;;;;;10.52;9.43;;;;;;;28.92;50.45;99454.91;4843835;29;20034;-84
2022/07/23 08:54:37;;;;;;;11.95;8.80;;;;;;;28.94;50.80;99448.31;4826797;29;20097;-84
2022/07/23 08:57:03;;;;;;;9.73;8.82;;;;;;;29.04;50.28;99462.25;4843461;29;20029;-84
2022/07/23 08:59:29;;;;;;;10.52;9.52;;;;;;;29.11;50.55;99480.22;4843450;29;20086;-84
2022/07/23 09:01:54;;;;;;;9.65;8.20;;;;;;;29.22;52.01;99499.28;4841775;29;20065;-84
2022/07/23 09:04:19;;;;;;;9.93;8.93;;;;;;;29.21;52.05;99510.22;4842574;29;20034;-84
2022/07/23 09:06:45;;;;;;;11.10;9.55;;;;;;;29.09;52.46;99517.97;4857368;29;20036;-84
2022/07/23 09:09:21;;;;;;;17.15;9.68;;;;;;;28.75;52.83;99516.00;4842082;29;20038;-84
2022/07/23 09:12:01;;;;;;;9.00;8.18;;;;;;;28.56;53.52;99541.56;4826352;29;20037;-82
2022/07/23 09:14:46;;;;;;;12.20;9.85;;;;;;;28.27;54.56;99545.94;4843369;29;20175;-82
2022/07/23 09:17:17;;;;;;;10.90;9.23;;;;;;;28.06;55.19;99551.25;4843320;29;20026;-82
2022/07/23 09:19:44;;;;;;;9.40;8.35;;;;;;;27.85;55.93;99550.19;4842993;29;20503;-82
2022/07/23 09:22:26;;;;;;;11.05;9.93;;;;;;;27.67;56.48;99546.19;4842962;29;20044;-82
2022/07/23 09:25:13;;;;;;;11.18;10.07;;;;;;;27.39;61.17;99529.91;4842810;29;20348;-82
2022/07/23 09:27:46;;;;;;;12.25;10.43;;;;;;;27.18;66.00;99527.94;4842823;29;20065;-82
2022/07/23 09:30:12;;;;;;;14.07;11.23;;;;;;;26.81;69.96;99494.84;4842855;29;20483;-82
2022/07/23 09:32:39;;;;;;;21.02;13.68;;;;;;;26.16;75.06;99492.59;4843165;29;20040;-71
2022/07/23 09:35:04;;;;;;;16.73;13.32;;;;;;;25.10;82.43;99456.44;4842743;29;20057;-75
2022/07/23 09:37:30;;;;;;;17.85;12.02;;;;;;;24.84;84.53;99453.97;4843031;29;20061;-76
2022/07/23 09:40:04;;;;;;;15.40;11.88;;;;;;;24.68;86.67;99451.31;4842612;29;20088;-76
2022/07/23 09:42:30;;;;;;;12.77;11.48;;;;;;;24.58;87.70;99473.63;4840731;29;20038;-74
2022/07/23 09:44:57;;;;;;;14.77;12.20;;;;;;;24.39;87.77;99482.72;4842171;29;20033;-74
2022/07/23 09:47:26;;;;;;;13.05;11.40;;;;;;;24.32;89.18;99508.31;4842197;29;20068;-76
2022/07/23 09:50:11;;;;;;;13.75;11.48;;;;;;;24.26;93.27;99537.41;4842216;29;20034;-75
2022/07/23 09:52:44;;;;;;;13.32;11.93;;;;;;;24.18;97.59;99543.53;4842106;29;20034;-75
2022/07/23 09:55:10;;;;;;;15.38;11.68;;;;;;;24.16;100.00;99548.19;4841953;29;20030;-75
2022/07/23 09:57:36;;;;;;;17.27;15.25;;;;;;;23.99;100.00;99541.97;4841998;29;20041;-74
2022/07/23 10:00:05;;;;;;;22.65;17.05;;;;;;;23.64;100.00;99546.44;4841901;29;20101;-75
2022/07/23 10:02:34;;;;;;;19.15;14.02;;;;;;;23.40;100.00;99540.97;4842113;29;20172;-75
2022/07/23 10:05:01;;;;;;;21.33;15.98;;;;;;;23.20;100.00;99534.19;4840715;29;20062;-74
2022/07/23 10:07:29;;;;;;;21.75;14.60;;;;;;;23.12;100.00;99516.38;4841875;29;20422;-74
2022/07/23 10:09:55;;;;;;;16.15;14.55;;;;;;;22.83;100.00;99501.50;4841925;29;20065;-74
2022/07/23 10:14:50;;;;;;;15.95;14.25;;;;;;;22.81;100.00;99492.03;4841939;29;20478;-74
2022/07/23 10:17:16;;;;;;;18.52;13.77;;;;;;;22.67;100.00;99498.72;4841800;29;20030;-74
2022/07/23 10:19:41;;;;;;;14.70;13.13;;;;;;;22.63;100.00;99468.16;4841816;29;20535;-74
2022/07/23 10:22:19;;;;;;;10.82;9.73;;;;;;;22.83;100.00;99477.59;4841509;29;20033;-74
2022/07/23 10:24:55;;;;;;;13.07;10.43;;;;;;;23.03;100.00;99478.28;4841047;29;20029;-75
2022/07/23 10:27:39;;;;;;;10.20;9.20;;;;;;;23.28;100.00;99507.69;4842308;29;20037;-76
2022/07/23 10:30:09;;;;;;;11.02;9.57;;;;;;;23.69;100.00;99507.94;4841848;29;20109;-76
2022/07/23 10:32:50;;;;;;;11.70;9.75;;;;;;;24.06;100.00;99515.56;4841660;29;20030;-76
2022/07/23 10:35:57;;;;;;;10.02;9.10;;;;;;;24.13;100.00;99522.72;4841774;29;20030;-75
2022/07/23 10:38:34;;;;;;;10.88;8.93;;;;;;;24.17;100.00;99512.59;4820874;29;20046;-75
2022/07/23 10:41:01;;;;;;;8.98;7.57;;;;;;;24.35;100.00;99504.50;4821055;29;20487;-76
2022/07/23 10:43:28;;;;;;;11.00;7.97;;;;;;;24.53;98.16;99520.38;4821426;29;20530;-76
2022/07/23 10:45:54;;;;;;;10.20;7.78;;;;;;;24.54;98.28;99516.72;4821173;29;20035;-76
2022/07/23 10:48:28;;;;;;;7.47;6.78;;;;;;;24.38;98.79;99510.34;4821136;29;20083;-76
2022/07/23 10:51:14;;;;;;;8.32;7.38;;;;;;;24.40;98.29;99512.88;4820940;29;20077;-76
2022/07/23 10:53:51;;;;;;;8.27;7.47;;;;;;;24.34;97.80;99514.31;4821115;29;20038;-75
2022/07/23 10:56:47;;;;;;;9.82;7.75;;;;;;;24.17;97.96;99517.09;4820945;29;20054;-75
2022/07/23 10:59:12;;;;;;;7.32;6.63;;;;;;;24.21;99.48;99513.13;4820958;29;20102;-75
2022/07/23 11:01:38;;;;;;;7.72;6.97;;;;;;;24.05;100.00;99513.91;4820807;29;20078;-75
2022/07/23 11:04:07;;;;;;;9.43;6.97;;;;;;;24.11;100.00;99531.88;4820863;29;20060;-75
2022/07/23 11:07:01;;;;;;;7.40;6.53;;;;;;;24.47;100.00;99542.31;4820983;29;20121;-76
2022/07/23 11:09:39;;;;;;;8.68;7.47;;;;;;;24.71;100.00;99542.38;4749021;30;20186;-76
2022/07/23 11:12:13;;;;;;;7.90;6.85;;;;;;;24.92;100.00;99547.22;4748806;30;20048;-75
2022/07/23 11:15:00;;;;;;;7.82;6.75;;;;;;;24.92;100.00;99544.53;4754434;30;20043;-76
2022/07/23 11:17:27;;;;;;;8.75;7.85;;;;;;;24.88;98.01;99545.88;4766742;30;20114;-76
2022/07/23 11:20:07;;;;;;;8.00;6.60;;;;;;;24.71;99.01;99541.53;4766470;30;20166;-75
2022/07/23 11:22:37;;;;;;;8.82;7.93;;;;;;;24.60;99.68;99526.69;4766748;30;20039;-75
2022/07/23 11:25:03;;;;;;;7.70;6.40;;;;;;;24.54;98.62;99519.38;4766470;30;20044;-75
2022/07/23 11:27:43;;;;;;;7.68;6.88;;;;;;;24.44;98.12;99519.53;4770890;30;20105;-76
2022/07/23 11:30:30;;;;;;;8.00;7.20;;;;;;;24.35;99.26;99496.50;4772313;30;20032;-75
2022/07/23 11:33:10;;;;;;;8.23;7.43;;;;;;;24.41;98.46;99497.72;4772256;30;20051;-76